Progress, Oregon
Current Conditions -  °F | °C
As of 9:53 PM on Friday 19 Dec 2014 (Local Time) from KHIO Reporting Station
Overcast Overcast  
Wind Chill: 43°   Ceiling: 7000
Heat Index: 47°   Visibility: 10mi
Dew Point: 44°   Wind: 9mph
Humidity: 90%   Direction: 150°SSE
Pressure: 29.91"   Gusts: NA
Location:  45.4908°N, 122.804°W
Report Text: KHIO 200553Z AUTO 15008KT 10SM FEW048 OVC070 08/07 A2991 RMK AO2 RAB14E53 SLP128 P0000 60000 T00830067 10094 20072 58022
Loading
Personal Weather Stations






























Interactive Weather Map New forecast layout! Learn more

10-Day Weather Forecast

Advertisements
Track Severe Weather on mobile